Time;durP1;ratioP1;P1;durP2;ratioP2;P2;SDS_P1;SDS_P2;PMS_P1;PMS_P2;Temp;Humidity;BMP_temperature;BMP_pressure;BME280_temperature;BME280_humidity;BME280_pressure;Samples;Min_cycle;Max_cycle;Signal;HPM_P1;HPM_P2
2022/04/29 00:00:24;;;;;;;5.90;4.43;;;;;;;11.88;58.13;100907.91;1088139;54;20768;-79
2022/04/29 00:01:26;;;;;;;6.47;4.43;;;;;;;11.96;57.88;100918.78;1088179;54;20038;-79
2022/04/29 00:02:31;;;;;;;6.53;4.45;;;;;;;12.01;57.68;100908.53;1088214;54;20037;-79
2022/04/29 00:03:32;;;;;;;6.72;4.70;;;;;;;12.08;57.35;100908.88;1088188;54;20039;-78
2022/04/29 00:04:38;;;;;;;6.80;4.32;;;;;;;12.11;57.28;100916.66;1089501;39;20557;-77
2022/04/29 00:05:46;;;;;;;6.10;4.20;;;;;;;12.14;57.56;100918.22;1087754;54;20034;-79
2022/04/29 00:06:47;;;;;;;9.00;5.65;;;;;;;11.95;57.91;100908.22;1088225;54;20034;-79
2022/04/29 00:07:51;;;;;;;8.32;5.78;;;;;;;11.78;58.83;100917.69;1088280;54;20595;-77
2022/04/29 00:08:53;;;;;;;8.95;6.13;;;;;;;11.68;58.95;100918.50;1088216;54;20576;-80
2022/04/29 00:09:57;;;;;;;8.25;5.88;;;;;;;11.61;59.29;100919.13;1088183;54;20035;-77
2022/04/29 00:11:01;;;;;;;8.77;6.03;;;;;;;11.54;59.46;100916.97;1088184;54;20034;-78
2022/04/29 00:12:05;;;;;;;10.18;6.35;;;;;;;11.52;59.52;100913.56;1088248;54;20026;-78
2022/04/29 00:13:12;;;;;;;6.22;5.03;;;;;;;11.67;59.26;100915.91;1088225;39;20537;-78
2022/04/29 00:14:13;;;;;;;6.97;5.18;;;;;;;11.73;58.92;100904.69;1088165;54;20042;-79
2022/04/29 00:15:19;;;;;;;8.82;5.70;;;;;;;11.80;58.76;100913.06;1088175;54;20019;-78
2022/04/29 00:16:25;;;;;;;7.32;4.80;;;;;;;11.77;58.97;100914.16;1088085;54;20046;-77
2022/04/29 00:17:30;;;;;;;8.35;5.88;;;;;;;11.85;58.70;100902.78;1088180;54;20094;-78
2022/04/29 00:18:35;;;;;;;8.60;5.50;;;;;;;11.86;58.83;100901.81;1088287;54;20041;-78
2022/04/29 00:19:36;;;;;;;9.68;5.80;;;;;;;11.80;58.98;100900.50;1088340;54;20030;-77
2022/04/29 00:20:41;;;;;;;7.72;5.60;;;;;;;11.83;58.97;100902.94;1088224;54;20690;-78
2022/04/29 00:21:42;;;;;;;9.27;5.38;;;;;;;11.73;59.47;100909.19;1087710;54;20631;-78
2022/04/29 00:22:47;;;;;;;8.02;5.95;;;;;;;11.75;59.17;100901.88;1088037;54;20049;-78
2022/04/29 00:23:49;;;;;;;8.20;5.60;;;;;;;11.71;59.66;100901.28;1088223;54;20050;-77
2022/04/29 00:24:53;;;;;;;8.13;5.78;;;;;;;11.69;59.51;100898.75;1088221;54;20041;-79
2022/04/29 00:25:54;;;;;;;8.32;5.32;;;;;;;11.70;59.52;100900.47;1088152;54;20045;-77
2022/04/29 00:26:59;;;;;;;7.00;4.97;;;;;;;11.69;59.57;100904.13;1088260;54;20106;-78
2022/04/29 00:28:00;;;;;;;8.48;5.68;;;;;;;11.68;59.62;100902.41;1088256;47;20071;-77
2022/04/29 00:29:05;;;;;;;8.95;5.32;;;;;;;11.72;59.78;100900.31;1091654;39;20465;-78
2022/04/29 00:30:11;;;;;;;6.65;4.90;;;;;;;11.70;59.95;100897.78;1088178;54;20053;-78
2022/04/29 00:31:12;;;;;;;8.15;5.65;;;;;;;11.65;60.05;100897.31;1088252;54;20041;-77
2022/04/29 00:32:20;;;;;;;7.47;5.47;;;;;;;11.67;60.14;100894.50;1088211;54;20030;-77
2022/04/29 00:33:21;;;;;;;6.63;5.18;;;;;;;11.64;59.87;100900.13;1088187;54;20034;-78
2022/04/29 00:34:26;;;;;;;9.57;5.75;;;;;;;11.63;59.94;100893.91;1088287;54;20082;-78
2022/04/29 00:35:28;;;;;;;7.55;4.90;;;;;;;11.62;60.19;100894.06;1088111;54;20053;-78
2022/04/29 00:36:32;;;;;;;7.50;4.97;;;;;;;11.61;59.96;100890.53;1088221;54;20026;-78
2022/04/29 00:37:42;;;;;;;6.78;5.18;;;;;;;11.55;60.45;100889.22;1087988;54;20043;-78
2022/04/29 00:38:46;;;;;;;8.90;5.55;;;;;;;11.50;60.21;100891.44;1087744;54;20131;-76
2022/04/29 00:39:48;;;;;;;7.22;4.95;;;;;;;11.48;60.56;100889.88;1090724;39;20629;-78
2022/04/29 00:40:52;;;;;;;10.13;5.50;;;;;;;11.45;60.40;100882.09;1088145;46;20125;-79
2022/04/29 00:41:54;;;;;;;7.55;4.85;;;;;;;11.47;60.53;100885.50;1087964;54;20038;-78
2022/04/29 00:42:58;;;;;;;8.45;5.57;;;;;;;11.46;60.23;100884.66;1088206;54;20030;-78
2022/04/29 00:44:02;;;;;;;7.05;4.82;;;;;;;11.52;60.28;100880.63;1088210;54;20038;-78
2022/04/29 00:45:06;;;;;;;7.68;4.93;;;;;;;11.53;60.40;100887.63;1088102;54;20609;-79
2022/04/29 00:46:08;;;;;;;5.57;4.07;;;;;;;11.56;59.81;100890.06;1088245;54;20035;-78
2022/04/29 00:47:14;;;;;;;6.38;4.53;;;;;;;11.59;60.24;100884.47;1088193;54;20033;-78
2022/04/29 00:48:21;;;;;;;6.82;5.07;;;;;;;11.52;60.41;100894.00;1088208;54;20035;-77
2022/04/29 00:49:25;;;;;;;8.80;5.47;;;;;;;11.46;60.53;100886.47;1088226;54;20034;-79
2022/04/29 00:50:33;;;;;;;7.75;5.35;;;;;;;11.38;61.00;100887.13;1088195;54;20051;-78
2022/04/29 00:51:35;;;;;;;7.70;5.50;;;;;;;11.36;61.15;100884.56;1088525;39;20630;-79
2022/04/29 00:52:43;;;;;;;8.60;5.10;;;;;;;11.33;61.18;100882.16;1088076;54;20034;-79
2022/04/29 00:53:45;;;;;;;9.20;5.50;;;;;;;11.30;61.48;100887.78;1088218;54;20038;-79
2022/04/29 00:54:54;;;;;;;8.93;5.65;;;;;;;11.27;61.75;100881.84;1087863;54;20053;-80
2022/04/29 00:56:00;;;;;;;7.45;5.50;;;;;;;11.24;61.99;100880.28;1087870;54;20038;-79
2022/04/29 00:57:06;;;;;;;8.27;5.78;;;;;;;11.22;61.47;100883.06;1088030;54;20045;-79
2022/04/29 00:58:16;;;;;;;9.35;5.95;;;;;;;11.21;61.89;100883.19;1092211;39;20630;-79
2022/04/29 00:59:26;;;;;;;7.72;5.38;;;;;;;11.17;61.67;100876.38;1088211;54;20037;-78
2022/04/29 01:00:31;;;;;;;9.05;5.75;;;;;;;11.11;61.65;100879.59;1088125;54;20034;-79
2022/04/29 01:01:34;;;;;;;10.32;5.07;;;;;;;11.16;61.75;100882.72;1088098;54;20038;-79
2022/04/29 01:02:41;;;;;;;7.57;5.03;;;;;;;11.19;61.49;100879.78;1088168;54;20018;-79
2022/04/29 01:03:49;;;;;;;8.02;5.88;;;;;;;11.10;62.09;100888.59;1088118;47;20057;-78
2022/04/29 01:04:59;;;;;;;9.50;6.32;;;;;;;11.08;62.03;100878.03;1088236;54;20014;-79
2022/04/29 01:06:04;;;;;;;7.25;5.30;;;;;;;11.10;61.90;100881.41;1088179;54;20030;-77
2022/04/29 01:07:05;;;;;;;9.23;5.47;;;;;;;11.05;62.06;100873.75;1088128;54;20065;-79
2022/04/29 01:08:10;;;;;;;9.63;6.13;;;;;;;11.09;62.11;100879.72;1088212;54;20038;-78
2022/04/29 01:09:11;;;;;;;8.07;5.53;;;;;;;11.04;62.13;100877.44;1088221;54;20035;-79
2022/04/29 01:10:17;;;;;;;8.13;5.60;;;;;;;11.07;62.06;100879.00;1088177;54;20041;-79
2022/04/29 01:11:21;;;;;;;8.23;5.45;;;;;;;11.02;62.43;100890.06;1087869;54;20030;-79
2022/04/29 01:12:28;;;;;;;10.70;6.32;;;;;;;11.00;62.15;100881.31;1087782;54;20035;-79
2022/04/29 01:13:30;;;;;;;7.35;5.38;;;;;;;11.04;62.07;100882.78;1088166;54;20056;-79
2022/04/29 01:14:34;;;;;;;7.22;5.65;;;;;;;11.06;62.01;100885.31;1088210;54;20037;-79
2022/04/29 01:15:36;;;;;;;8.35;5.47;;;;;;;11.08;61.93;100878.84;1088174;54;20102;-78
2022/04/29 01:16:41;;;;;;;9.50;5.63;;;;;;;10.97;62.39;100878.88;1088232;54;20037;-79
2022/04/29 01:17:45;;;;;;;8.40;5.75;;;;;;;10.88;62.88;100882.31;1088159;54;20049;-79
2022/04/29 01:18:55;;;;;;;8.98;5.90;;;;;;;10.89;63.31;100873.31;1088182;54;20030;-79
2022/04/29 01:20:00;;;;;;;7.35;5.60;;;;;;;10.96;62.79;100881.72;1088154;54;20022;-79
2022/04/29 01:21:07;;;;;;;7.45;5.28;;;;;;;10.96;62.72;100879.03;1088194;54;20031;-79
2022/04/29 01:22:11;;;;;;;8.35;5.13;;;;;;;11.01;62.46;100879.47;1088138;54;20054;-79
2022/04/29 01:23:15;;;;;;;7.10;5.13;;;;;;;11.04;62.30;100882.78;1088131;54;20034;-79
2022/04/29 01:24:17;;;;;;;6.95;5.38;;;;;;;11.01;62.44;100880.34;1090169;39;20594;-79
2022/04/29 01:25:21;;;;;;;6.57;4.65;;;;;;;11.05;62.23;100883.63;1088165;54;20034;-78
2022/04/29 01:26:23;;;;;;;6.72;5.03;;;;;;;11.07;62.13;100879.84;1088204;54;20029;-79
2022/04/29 01:27:27;;;;;;;6.40;4.47;;;;;;;11.08;62.43;100886.88;1088229;54;20034;-78
2022/04/29 01:28:30;;;;;;;8.63;5.10;;;;;;;11.07;62.06;100876.31;1087925;54;20030;-79
2022/04/29 01:29:35;;;;;;;8.10;4.97;;;;;;;11.02;62.40;100868.69;1087797;54;20090;-81
2022/04/29 01:30:37;;;;;;;6.18;4.75;;;;;;;11.05;62.15;100872.91;1088183;54;20034;-80
2022/04/29 01:31:42;;;;;;;8.20;4.80;;;;;;;10.93;62.48;100875.63;1088188;54;20018;-79
2022/04/29 01:32:44;;;;;;;9.70;5.10;;;;;;;10.91;62.41;100874.91;1088209;54;20053;-79
2022/04/29 01:33:51;;;;;;;7.07;5.40;;;;;;;10.84;63.00;100863.00;1103165;31;20600;-80
2022/04/29 01:34:52;;;;;;;8.73;6.28;;;;;;;10.79;63.47;100862.56;1088221;54;20038;-79
2022/04/29 01:35:57;;;;;;;8.18;5.47;;;;;;;10.89;62.82;100865.31;1088160;54;20046;-79
2022/04/29 01:37:01;;;;;;;7.55;5.85;;;;;;;10.88;62.81;100871.63;1088092;54;20038;-78
2022/04/29 01:38:06;;;;;;;7.90;5.80;;;;;;;10.84;63.47;100875.56;1089659;46;20038;-80
2022/04/29 01:39:10;;;;;;;9.60;5.45;;;;;;;10.77;63.35;100870.69;1088133;54;20015;-79
2022/04/29 01:40:13;;;;;;;8.02;5.90;;;;;;;10.74;63.14;100873.63;1090539;39;20562;-80
2022/04/29 01:41:17;;;;;;;6.85;5.55;;;;;;;10.79;63.16;100873.25;1088151;54;20046;-78
2022/04/29 01:42:19;;;;;;;9.80;5.90;;;;;;;10.79;63.25;100862.56;1088194;54;20043;-79
2022/04/29 01:43:23;;;;;;;6.28;4.85;;;;;;;10.84;62.99;100868.34;1088131;54;20038;-79
2022/04/29 01:44:24;;;;;;;7.32;5.38;;;;;;;10.87;63.00;100867.25;1088177;54;20665;-79
2022/04/29 01:45:28;;;;;;;7.35;5.32;;;;;;;10.81;63.04;100865.97;1088105;39;20657;-79
2022/04/29 01:46:30;;;;;;;12.38;7.13;;;;;;;10.65;63.99;100866.34;1087943;54;21035;-79
2022/04/29 01:47:34;;;;;;;7.55;6.10;;;;;;;10.64;63.93;100866.47;1089318;46;20642;-80
2022/04/29 01:48:38;;;;;;;8.27;5.75;;;;;;;10.65;63.60;100869.03;1088171;54;20030;-79
2022/04/29 01:49:42;;;;;;;7.30;5.57;;;;;;;10.62;63.75;100866.59;1088091;54;20034;-78
2022/04/29 01:50:45;;;;;;;7.75;5.97;;;;;;;10.61;63.68;100876.47;1089113;46;20045;-79
2022/04/29 01:51:49;;;;;;;7.30;5.03;;;;;;;10.60;63.63;100882.78;1088040;54;20034;-79
2022/04/29 01:52:50;;;;;;;7.03;5.07;;;;;;;10.58;63.88;100874.03;1087889;54;20042;-79
2022/04/29 01:53:57;;;;;;;8.15;5.97;;;;;;;10.59;63.69;100875.72;1088095;54;20021;-79
2022/04/29 01:54:59;;;;;;;7.95;5.15;;;;;;;10.63;63.62;100880.84;1088187;54;20035;-78
2022/04/29 01:56:03;;;;;;;7.20;4.57;;;;;;;10.65;63.54;100885.06;1088111;54;20026;-79
2022/04/29 01:57:06;;;;;;;8.77;5.97;;;;;;;10.54;63.75;100879.75;1088049;54;20038;-80
2022/04/29 01:58:11;;;;;;;7.53;5.05;;;;;;;10.60;63.82;100879.25;1088163;54;20031;-78
2022/04/29 01:59:12;;;;;;;7.07;5.35;;;;;;;10.57;63.82;100869.66;1088147;54;20034;-78
2022/04/29 02:00:18;;;;;;;9.32;5.25;;;;;;;10.60;63.77;100872.09;1088108;54;20025;-80
2022/04/29 02:01:19;;;;;;;9.35;5.45;;;;;;;10.57;63.64;100872.31;1090580;47;20659;-79
2022/04/29 02:02:25;;;;;;;8.48;5.82;;;;;;;10.58;63.60;100873.19;1087824;54;20038;-79
2022/04/29 02:03:26;;;;;;;6.43;4.68;;;;;;;10.59;63.65;100877.53;1087838;54;20038;-79
2022/04/29 02:04:30;;;;;;;6.55;5.00;;;;;;;10.54;63.66;100869.06;1088135;54;20031;-79
2022/04/29 02:05:34;;;;;;;9.18;5.68;;;;;;;10.44;63.62;100863.59;1091579;39;20645;-79
2022/04/29 02:06:38;;;;;;;8.00;4.80;;;;;;;10.41;63.92;100867.34;1090116;39;20915;-79
2022/04/29 02:07:44;;;;;;;7.90;5.40;;;;;;;10.43;63.59;100868.09;1088130;54;20064;-78
2022/04/29 02:08:45;;;;;;;7.50;5.53;;;;;;;10.40;64.11;100867.50;1088148;54;20034;-79
2022/04/29 02:09:54;;;;;;;7.65;5.25;;;;;;;10.42;64.04;100860.22;1088165;54;20062;-78
2022/04/29 02:10:58;;;;;;;7.57;5.35;;;;;;;10.43;63.81;100857.41;1088109;54;20057;-79
2022/04/29 02:12:05;;;;;;;7.82;5.13;;;;;;;10.41;63.59;100864.69;1088067;54;20041;-79
2022/04/29 02:13:10;;;;;;;9.20;5.75;;;;;;;10.36;63.94;100858.84;1088108;54;20050;-80
2022/04/29 02:14:13;;;;;;;7.65;5.55;;;;;;;10.32;63.84;100865.41;1088183;54;20015;-78
2022/04/29 02:15:17;;;;;;;9.20;5.97;;;;;;;10.30;63.96;100856.66;1088489;54;20026;-77
2022/04/29 02:16:19;;;;;;;10.18;5.78;;;;;;;10.27;64.12;100856.91;1088448;54;20065;-78
2022/04/29 02:17:23;;;;;;;8.10;5.55;;;;;;;10.32;64.03;100853.88;1088429;54;20053;-78
2022/04/29 02:18:25;;;;;;;7.32;5.40;;;;;;;10.29;63.96;100850.47;1088469;54;20022;-78
2022/04/29 02:19:30;;;;;;;8.77;5.45;;;;;;;10.24;64.02;100860.69;1088087;54;20040;-80
2022/04/29 02:20:34;;;;;;;10.38;5.90;;;;;;;10.10;64.76;100861.78;1088329;54;20057;-77
2022/04/29 02:21:35;;;;;;;9.43;6.15;;;;;;;10.12;64.81;100862.50;1088442;54;20634;-79
2022/04/29 02:22:40;;;;;;;7.35;5.78;;;;;;;10.11;64.76;100859.94;1088476;54;20019;-78
2022/04/29 02:23:41;;;;;;;7.75;6.05;;;;;;;10.10;64.82;100852.91;1088486;54;20042;-79
2022/04/29 02:24:47;;;;;;;7.60;5.30;;;;;;;10.13;64.56;100850.84;1088546;54;20078;-78
2022/04/29 02:25:52;;;;;;;7.70;6.10;;;;;;;10.10;64.75;100855.56;1088564;54;20018;-79
2022/04/29 02:26:59;;;;;;;10.23;5.95;;;;;;;10.04;64.92;100854.25;1088558;54;20057;-80
2022/04/29 02:28:04;;;;;;;7.22;5.65;;;;;;;10.08;64.67;100862.84;1088520;54;20065;-79
2022/04/29 02:29:07;;;;;;;8.05;5.28;;;;;;;10.10;64.52;100860.91;1088550;54;20042;-79
2022/04/29 02:30:14;;;;;;;7.45;5.32;;;;;;;10.07;65.10;100851.34;1089067;46;20623;-78
2022/04/29 02:31:16;;;;;;;7.15;5.35;;;;;;;10.09;64.56;100862.75;1088580;54;20034;-79
2022/04/29 02:32:21;;;;;;;7.40;5.78;;;;;;;10.01;64.99;100873.19;1088543;54;20026;-78
2022/04/29 02:33:23;;;;;;;9.75;5.57;;;;;;;10.00;65.06;100860.81;1088525;54;20034;-80
2022/04/29 02:34:29;;;;;;;7.13;5.10;;;;;;;10.03;65.06;100852.53;1088812;46;20025;-78
2022/04/29 02:35:31;;;;;;;8.52;5.47;;;;;;;10.05;64.71;100850.59;1088298;54;20045;-79
2022/04/29 02:36:35;;;;;;;7.40;5.88;;;;;;;9.95;65.41;100863.84;1088389;54;20118;-79
2022/04/29 02:37:37;;;;;;;8.18;5.82;;;;;;;9.94;65.14;100863.94;1088513;54;20034;-79
2022/04/29 02:38:44;;;;;;;7.90;5.20;;;;;;;9.91;65.28;100864.22;1088559;54;20024;-79
2022/04/29 02:39:47;;;;;;;7.30;4.97;;;;;;;9.96;65.46;100859.34;1088636;54;20034;-78
2022/04/29 02:40:54;;;;;;;6.07;4.68;;;;;;;9.96;65.36;100864.69;1090466;46;20102;-80
2022/04/29 02:41:55;;;;;;;6.32;4.88;;;;;;;9.97;65.00;100863.72;1088626;54;20057;-78
2022/04/29 02:43:06;;;;;;;6.10;4.88;;;;;;;9.98;65.22;100862.75;1091655;39;20628;-79
2022/04/29 02:44:07;;;;;;;10.00;5.57;;;;;;;9.90;65.26;100858.00;1088661;54;20022;-78
2022/04/29 02:45:14;;;;;;;8.95;5.55;;;;;;;9.90;65.72;100865.19;1088642;54;20025;-79
2022/04/29 02:46:15;;;;;;;9.93;6.57;;;;;;;9.83;65.81;100854.97;1088614;54;20045;-80
2022/04/29 02:47:20;;;;;;;7.55;5.18;;;;;;;9.82;65.47;100858.59;1088876;46;20771;-80
2022/04/29 02:48:21;;;;;;;8.77;5.95;;;;;;;9.84;65.75;100858.50;1089855;46;20322;-78
2022/04/29 02:49:30;;;;;;;8.00;5.90;;;;;;;9.73;66.22;100856.63;1088478;54;20069;-78
2022/04/29 02:50:32;;;;;;;8.63;5.80;;;;;;;9.73;66.09;100851.31;1091971;39;20579;-81
2022/04/29 02:51:36;;;;;;;8.77;6.25;;;;;;;9.74;65.97;100855.69;1088177;54;20045;-80
2022/04/29 02:52:40;;;;;;;6.82;5.05;;;;;;;9.72;66.15;100857.63;1088007;54;20769;-78
2022/04/29 02:53:42;;;;;;;8.95;5.30;;;;;;;9.73;66.18;100861.97;1087564;54;21094;-80
2022/04/29 02:54:46;;;;;;;7.07;5.00;;;;;;;9.75;66.10;100857.38;1087805;54;20026;-77
2022/04/29 02:55:47;;;;;;;10.70;5.97;;;;;;;9.71;65.92;100863.94;1087997;54;20022;-79
2022/04/29 02:56:54;;;;;;;7.35;5.65;;;;;;;9.75;66.21;100860.06;1088768;31;20764;-78
2022/04/29 02:57:56;;;;;;;7.13;4.95;;;;;;;9.73;65.93;100861.97;1087902;54;20057;-81
2022/04/29 02:59:00;;;;;;;7.07;5.35;;;;;;;9.72;65.99;100862.97;1087979;54;20081;-81
2022/04/29 03:00:05;;;;;;;7.95;5.50;;;;;;;9.74;65.93;100855.69;1087943;54;20033;-81
2022/04/29 03:01:06;;;;;;;7.45;5.55;;;;;;;9.74;66.13;100861.00;1088000;54;20042;-79
2022/04/29 03:02:11;;;;;;;8.70;5.57;;;;;;;9.67;66.46;100857.13;1087858;54;20030;-79
2022/04/29 03:03:12;;;;;;;9.85;6.57;;;;;;;9.55;66.73;100855.41;1087973;54;20057;-79
2022/04/29 03:04:17;;;;;;;8.45;5.50;;;;;;;9.57;66.52;100853.47;1087858;54;20668;-81
2022/04/29 03:05:18;;;;;;;7.85;5.10;;;;;;;9.63;66.45;100861.88;1087908;54;20062;-82
2022/04/29 03:06:22;;;;;;;9.15;5.47;;;;;;;9.57;66.54;100856.13;1089467;39;20546;-81
2022/04/29 03:07:24;;;;;;;7.85;5.30;;;;;;;9.45;67.06;100853.44;1087976;54;20031;-81
2022/04/29 03:08:28;;;;;;;9.23;5.43;;;;;;;9.47;66.71;100853.34;1087982;54;20765;-80
2022/04/29 03:09:31;;;;;;;6.60;4.95;;;;;;;9.57;66.47;100850.81;1087920;54;20026;-81
2022/04/29 03:10:36;;;;;;;6.75;4.88;;;;;;;9.60;66.47;100853.25;1087930;54;20037;-81
2022/04/29 03:11:38;;;;;;;7.53;5.30;;;;;;;9.65;66.24;100848.38;1088350;54;20035;-81
2022/04/29 03:12:44;;;;;;;8.40;5.43;;;;;;;9.66;66.49;100850.09;1088423;54;20034;-80
2022/04/29 03:13:46;;;;;;;10.27;5.85;;;;;;;9.53;66.80;100850.19;1088378;54;20018;-80
2022/04/29 03:14:50;;;;;;;7.03;5.53;;;;;;;9.52;66.47;100852.03;1088427;54;20030;-80
2022/04/29 03:15:51;;;;;;;8.15;5.45;;;;;;;9.58;66.50;100850.69;1088306;54;20039;-81
2022/04/29 03:16:55;;;;;;;7.50;4.97;;;;;;;9.63;66.28;100853.00;1088370;54;20031;-81
2022/04/29 03:19:17;;;;;;;8.63;5.90;;;;;;;9.50;66.88;100847.75;1088143;54;20042;-80
2022/04/29 03:20:19;;;;;;;7.13;5.53;;;;;;;9.53;66.78;100844.84;1087805;54;20034;-81
2022/04/29 03:21:23;;;;;;;8.38;5.65;;;;;;;9.51;66.62;100836.97;1087750;54;20034;-80
2022/04/29 03:22:25;;;;;;;7.63;5.65;;;;;;;9.48;66.66;100839.88;1087759;54;20129;-81
2022/04/29 03:23:29;;;;;;;8.55;5.65;;;;;;;9.47;67.01;100843.50;1087866;54;20039;-82
2022/04/29 03:24:31;;;;;;;8.75;6.35;;;;;;;9.44;67.16;100841.09;1087801;54;20038;-80
2022/04/29 03:25:36;;;;;;;8.75;5.70;;;;;;;9.50;66.70;100847.75;1087923;54;20065;-81
2022/04/29 03:26:40;;;;;;;7.63;5.40;;;;;;;9.50;66.93;100848.63;1087701;54;20034;-80
2022/04/29 03:27:47;;;;;;;6.88;5.10;;;;;;;9.54;66.74;100840.38;1087836;46;20035;-81
2022/04/29 03:28:51;;;;;;;6.95;4.78;;;;;;;9.57;66.86;100842.78;1088068;54;20030;-81
2022/04/29 03:29:52;;;;;;;7.13;4.95;;;;;;;9.59;66.42;100832.84;1091008;39;20480;-80
2022/04/29 03:30:56;;;;;;;7.35;5.38;;;;;;;9.62;66.44;100836.13;1088139;54;20603;-80
2022/04/29 03:31:58;;;;;;;7.90;4.85;;;;;;;9.64;66.27;100841.34;1088027;54;20045;-80
2022/04/29 03:33:04;;;;;;;6.57;5.15;;;;;;;9.64;66.23;100838.66;1088126;54;20030;-80
2022/04/29 03:34:06;;;;;;;6.80;5.40;;;;;;;9.57;66.54;100837.44;1088139;54;20042;-82
2022/04/29 03:35:11;;;;;;;7.75;5.93;;;;;;;9.50;66.95;100840.59;1088184;54;20045;-81
2022/04/29 03:36:15;;;;;;;7.97;5.97;;;;;;;9.42;67.17;100848.34;1088095;54;20023;-80
2022/04/29 03:37:17;;;;;;;10.50;6.15;;;;;;;9.40;67.31;100841.44;1088163;54;20046;-81
2022/04/29 03:38:21;;;;;;;9.48;5.85;;;;;;;9.41;67.30;100843.13;1089994;46;20025;-81
2022/04/29 03:39:25;;;;;;;7.60;5.93;;;;;;;9.44;67.31;100840.22;1089606;46;20034;-80
2022/04/29 03:40:29;;;;;;;8.43;5.28;;;;;;;9.44;67.06;100843.75;1089296;46;20714;-80
2022/04/29 03:41:33;;;;;;;7.18;5.30;;;;;;;9.47;67.16;100840.00;1088036;54;20053;-82
2022/04/29 03:42:34;;;;;;;6.57;5.32;;;;;;;9.48;66.89;100839.88;1088379;46;20046;-81
2022/04/29 03:43:41;;;;;;;7.68;5.35;;;;;;;9.44;67.02;100838.41;1090041;39;20843;-80
2022/04/29 03:44:44;;;;;;;7.38;5.60;;;;;;;9.45;66.83;100840.09;1087831;54;20042;-81
2022/04/29 03:45:48;;;;;;;7.22;5.40;;;;;;;9.43;66.80;100844.72;1088051;54;20030;-81
2022/04/29 03:46:50;;;;;;;8.38;6.10;;;;;;;9.49;66.62;100841.56;1088215;54;20045;-79
2022/04/29 03:47:55;;;;;;;6.72;5.43;;;;;;;9.45;67.13;100837.44;1088161;54;20019;-82
2022/04/29 03:50:16;;;;;;;6.47;5.00;;;;;;;9.52;66.77;100841.34;1087727;54;20057;-81
2022/04/29 03:51:18;;;;;;;7.53;5.20;;;;;;;9.54;66.87;100835.88;1087922;39;20556;-81
2022/04/29 03:52:22;;;;;;;7.60;4.80;;;;;;;9.54;66.64;100835.03;1087430;54;20031;-80
2022/04/29 03:53:26;;;;;;;8.10;5.32;;;;;;;9.55;66.86;100834.03;1087416;54;20069;-81
2022/04/29 03:54:28;;;;;;;7.63;5.38;;;;;;;9.49;66.83;100830.06;1088318;39;20511;-82
2022/04/29 03:55:34;;;;;;;6.43;5.20;;;;;;;9.47;67.07;100832.81;1086734;54;20773;-81
2022/04/29 03:56:36;;;;;;;7.18;5.35;;;;;;;9.43;66.80;100836.72;1087546;54;20062;-81
2022/04/29 03:57:40;;;;;;;7.00;5.55;;;;;;;9.39;66.96;100840.56;1088221;46;20034;-82
2022/04/29 03:58:44;;;;;;;8.27;5.80;;;;;;;9.34;67.34;100846.28;1087494;54;20038;-79
2022/04/29 03:59:49;;;;;;;8.18;6.18;;;;;;;9.30;67.44;100841.28;1087686;54;20038;-80
2022/04/29 04:00:53;;;;;;;8.23;5.43;;;;;;;9.34;67.27;100838.25;1087429;54;20050;-81
2022/04/29 04:01:54;;;;;;;9.45;5.93;;;;;;;9.31;67.37;100838.50;1087234;54;20042;-80
2022/04/29 04:02:58;;;;;;;7.28;5.63;;;;;;;9.32;67.10;100847.34;1087864;46;20610;-80
2022/04/29 04:04:03;;;;;;;7.75;5.85;;;;;;;9.29;67.31;100840.44;1087895;46;20055;-77
2022/04/29 04:05:09;;;;;;;8.50;5.97;;;;;;;9.28;67.53;100837.88;1087560;54;20042;-81
2022/04/29 04:07:27;;;;;;;9.10;6.00;;;;;;;9.23;67.34;100845.41;1087748;54;20050;-80
2022/04/29 04:08:31;;;;;;;7.63;5.60;;;;;;;9.25;67.16;100844.31;1087526;54;20035;-80
2022/04/29 04:09:33;;;;;;;7.50;5.68;;;;;;;9.21;67.61;100843.69;1087672;54;20049;-80
2022/04/29 04:10:37;;;;;;;8.23;5.97;;;;;;;9.27;67.16;100844.19;1087700;54;20035;-80
2022/04/29 04:11:39;;;;;;;7.88;6.05;;;;;;;9.27;67.17;100844.19;1087777;54;20046;-81
2022/04/29 04:12:46;;;;;;;7.35;5.72;;;;;;;9.26;67.31;100847.84;1088228;54;20037;-81
2022/04/29 04:13:50;;;;;;;9.50;5.68;;;;;;;9.27;67.35;100841.50;1088099;54;20037;-76
2022/04/29 04:14:54;;;;;;;6.00;4.70;;;;;;;9.31;67.05;100851.81;1088208;54;20026;-77
2022/04/29 04:15:58;;;;;;;7.57;4.97;;;;;;;9.32;66.88;100850.88;1088145;54;20026;-77
2022/04/29 04:17:02;;;;;;;6.30;5.13;;;;;;;9.38;66.83;100838.88;1088316;54;20027;-77
2022/04/29 04:18:07;;;;;;;7.75;5.00;;;;;;;9.39;66.62;100834.41;1087702;54;20042;-77
2022/04/29 04:19:09;;;;;;;8.55;4.80;;;;;;;9.46;66.79;100838.28;1089497;39;20563;-77
2022/04/29 04:20:16;;;;;;;8.23;5.03;;;;;;;9.43;66.56;100843.84;1088194;54;20123;-77
2022/04/29 04:21:20;;;;;;;8.13;6.03;;;;;;;9.40;66.75;100847.63;1088186;54;20034;-77
2022/04/29 04:22:21;;;;;;;6.80;4.93;;;;;;;9.42;66.73;100853.69;1088018;54;20918;-78
2022/04/29 04:23:25;;;;;;;8.50;5.35;;;;;;;9.38;66.80;100852.22;1087939;54;20034;-77
2022/04/29 04:24:27;;;;;;;7.68;5.03;;;;;;;9.36;66.78;100855.00;1088196;54;20065;-77
2022/04/29 04:25:32;;;;;;;8.23;5.80;;;;;;;9.29;67.14;100850.25;1088205;54;20351;-78
2022/04/29 04:29:00;;;;;;;11.55;5.93;;;;;;;9.26;67.24;100845.16;1087513;54;20910;-79
2022/04/29 04:30:07;;;;;;;9.68;6.45;;;;;;;9.21;67.34;100853.50;1087986;54;20060;-78
2022/04/29 04:31:13;;;;;;;8.70;6.53;;;;;;;9.15;67.45;100856.63;1087142;54;20092;-78
2022/04/29 04:32:21;;;;;;;7.47;5.68;;;;;;;9.23;67.61;100850.72;1086945;54;20039;-79
2022/04/29 04:33:30;;;;;;;10.18;6.80;;;;;;;9.19;67.44;100856.28;1087290;54;20042;-79
2022/04/29 04:34:51;;;;;;;9.48;5.30;;;;;;;9.15;67.32;100857.50;1087667;54;20038;-79
2022/04/29 04:36:00;;;;;;;9.35;6.22;;;;;;;9.12;67.48;100852.38;1087560;54;20336;-79
2022/04/29 04:37:06;;;;;;;10.82;5.70;;;;;;;9.13;67.34;100853.22;1087877;47;20038;-78
2022/04/29 04:38:17;;;;;;;8.15;5.63;;;;;;;9.11;67.46;100856.00;1087256;54;20101;-78
2022/04/29 04:39:18;;;;;;;;;;;;;;;9.05;67.79;100854.66;1090418;39;20850;-79
2022/04/29 04:40:22;;;;;;;8.68;6.20;;;;;;;9.07;67.50;100859.88;1088079;54;19942;-79
2022/04/29 04:41:25;;;;;;;11.68;6.80;;;;;;;9.06;67.64;100860.88;1088116;54;20046;-80
2022/04/29 04:53:42;;;;;;;8.18;5.85;;;;;;;9.13;67.43;100867.44;1088161;54;20110;-75
2022/04/29 04:54:44;;;;;;;9.90;5.78;;;;;;;9.10;67.55;100867.66;1089174;39;20384;-76
2022/04/29 04:55:48;;;;;;;10.45;6.07;;;;;;;9.11;67.58;100861.34;1088454;31;20765;-76
2022/04/29 04:56:50;;;;;;;8.82;5.72;;;;;;;9.14;67.32;100866.47;1088021;54;20033;-77
2022/04/29 04:57:54;;;;;;;9.73;6.20;;;;;;;9.16;67.53;100861.84;1088179;54;20038;-77
2022/04/29 04:58:56;;;;;;;8.82;5.38;;;;;;;9.20;67.38;100860.66;1095788;39;20692;-77
2022/04/29 05:00:01;;;;;;;7.75;5.60;;;;;;;9.24;67.38;100855.09;1088183;54;20050;-78
2022/04/29 05:01:02;;;;;;;7.40;5.45;;;;;;;9.21;67.38;100867.69;1088104;54;20034;-78
2022/04/29 05:02:07;;;;;;;7.13;5.13;;;;;;;9.28;67.15;100862.75;1088108;54;20034;-77
2022/04/29 05:03:09;;;;;;;12.27;5.60;;;;;;;9.29;66.96;100861.78;1088242;54;20788;-75
2022/04/29 05:04:14;;;;;;;12.43;6.57;;;;;;;9.27;67.28;100868.19;1088206;54;20167;-75
2022/04/29 05:05:16;;;;;;;15.65;6.63;;;;;;;9.28;67.13;100869.91;1092552;31;20659;-76
2022/04/29 05:06:20;;;;;;;14.38;7.60;;;;;;;9.15;67.67;100870.84;1088086;54;20019;-76
2022/04/29 05:07:22;;;;;;;14.45;6.78;;;;;;;9.15;67.76;100865.50;1088228;54;20747;-76
2022/04/29 05:08:27;;;;;;;12.55;7.63;;;;;;;9.11;67.72;100868.53;1088194;54;20015;-76
2022/04/29 05:09:31;;;;;;;13.25;7.00;;;;;;;9.10;68.03;100870.31;1088145;54;20030;-75
2022/04/29 05:10:36;;;;;;;11.07;6.82;;;;;;;9.14;67.54;100868.28;1088064;54;20058;-76
2022/04/29 05:11:37;;;;;;;12.40;6.57;;;;;;;9.11;67.63;100868.53;1087938;54;20026;-75
2022/04/29 05:12:43;;;;;;;10.98;6.82;;;;;;;9.07;67.77;100870.53;1087975;46;20725;-76
2022/04/29 05:13:45;;;;;;;11.70;6.60;;;;;;;9.08;67.75;100868.75;1088245;54;20030;-75
2022/04/29 05:14:50;;;;;;;14.90;6.75;;;;;;;9.14;67.77;100879.81;1096186;39;20652;-75
2022/04/29 05:15:51;;;;;;;16.60;6.80;;;;;;;9.15;67.62;100872.63;1090495;46;20038;-75
2022/04/29 05:16:56;;;;;;;13.75;6.75;;;;;;;9.17;67.66;100874.22;1088161;54;20042;-75